Terminal Aerodrome Forecast
Issued by NWS Charleston, WV

Current Version | Previous Version | Text Only | Print | Product List | Glossary Off
Versions: 1 2 3 4 5 6 7 8 9 10 11 12 13 14 15 16 17 18 19 20 21 22 23

000
FTUS41 KRLX 290231 AAA
TAFHTS
TAF AMD
KHTS 290231Z 2903/2924 30005KT P6SM FEW050
     FM290400 00000KT 6SM BR FEW150
     FM290600 00000KT 4SM BR FEW200
     FM290800 00000KT 3SM BR SCT120
     FM291200 18006KT P6SM BKN090
     FM292100 21009KT P6SM VCTS BKN040CB=

USA.gov is the U.S. government's official web portal to all federal, state and local government web resources and services.